Quick Links (Output Below):   Max & Min Temps   /   Climate Reports   /   Zone Forecasts
River Forecasts   /   Forestry Forecasts   /   Aviation Forecasts   /   Radars   /   Features

Terminal Aerodrome Forecast (Fayetteville)

Pick a Site:
Arkadelphia | El Dorado | Fayetteville | Fort Smith | Harrison | Highfill | Hot Springs | Jonesboro
Little Rock | Monticello | Mountain Home | Pine Bluff | Texarkana
 Forecast 

KFYV 251720Z 2518/2618 23016G24KT P6SM SKC
     FM260000 27005KT P6SM FEW250
     FM260300 VRB03KT P6SM SCT250
     FM261300 04008KT P6SM BKN012=


 Latest METARs (Observations) 
How to Decode METARs
20Z KFYV 251953Z AUTO 24016G23KT 10SM CLR 24/12 A2959 RMK AO2 SLP009
         T02440117
         
19Z KFYV 251853Z 24015G24KT 10SM CLR 24/11 A2960 RMK AO2 SLP012
         T02390111
         
18Z KFYV 251753Z 28011G21KT 240V300 10SM CLR 23/13 A2961 RMK AO2
         SLP014 T02330128 10233 20150 58001
         
17Z KFYV 251653Z 28013G19KT 10SM CLR 22/13 A2963 RMK AO2 SLP021
         T02220128
         
16Z KFYV 251553Z 23016G24KT 10SM CLR 22/12 A2961 RMK AO2 SLP017
         T02170122
         
15Z KFYV 251453Z 23012KT 10SM CLR 20/13 A2961 RMK AO2 SLP017 T02000128
         50007
         
14Z KFYV 251353Z 22012KT 10SM CLR 18/13 A2961 RMK AO2 SLP019
         T01780133
         
13Z KFYV 251253Z 21015G20KT 10SM CLR 17/13 A2960 RMK AO2 SLP017
         T01670133
         
12Z KFYV 251153Z 20009KT 10SM CLR 15/14 A2959 RMK AO2 SLP012 70001
         T01500139 10161 20144 53005
         
11Z KFYV 251053Z 20014KT 10SM CLR 16/14 A2956 RMK AO2 SLP004
         T01560139
         
***** Today's Observations (Above) *****


Back to Main Page
http://www.srh.noaa.gov/lzk/qfcst.php

USA.gov is the U.S. government's official web portal to all federal, state and local government web resources and services.